sensor_id;sensor_type;location;lat;lon;timestamp;temperature;humidity
17489;DHT22;8861;52.644;4.734;2023-05-07T00:00:45;14.70;99.90
17489;DHT22;8861;52.644;4.734;2023-05-07T00:03:12;14.70;99.90
17489;DHT22;8861;52.644;4.734;2023-05-07T00:05:39;14.70;99.90
17489;DHT22;8861;52.644;4.734;2023-05-07T00:08:07;14.70;99.90
17489;DHT22;8861;52.644;4.734;2023-05-07T00:10:33;14.80;99.90
17489;DHT22;8861;52.644;4.734;2023-05-07T00:13:00;14.80;99.90
17489;DHT22;8861;52.644;4.734;2023-05-07T00:15:29;14.80;99.90
17489;DHT22;8861;52.644;4.734;2023-05-07T00:17:55;14.80;99.90
17489;DHT22;8861;52.644;4.734;2023-05-07T00:20:24;14.80;99.90
17489;DHT22;8861;52.644;4.734;2023-05-07T00:22:51;14.80;99.90
17489;DHT22;8861;52.644;4.734;2023-05-07T00:25:18;14.80;99.90
17489;DHT22;8861;52.644;4.734;2023-05-07T00:27:46;14.80;99.90
17489;DHT22;8861;52.644;4.734;2023-05-07T00:30:13;14.80;99.90
17489;DHT22;8861;52.644;4.734;2023-05-07T00:32:41;14.80;99.90
17489;DHT22;8861;52.644;4.734;2023-05-07T00:35:11;14.80;99.90
17489;DHT22;8861;52.644;4.734;2023-05-07T00:37:38;14.80;99.90
17489;DHT22;8861;52.644;4.734;2023-05-07T00:40:06;14.80;99.90
17489;DHT22;8861;52.644;4.734;2023-05-07T00:42:33;14.80;99.90
17489;DHT22;8861;52.644;4.734;2023-05-07T00:45:00;14.80;99.90
17489;DHT22;8861;52.644;4.734;2023-05-07T00:47:28;14.80;99.90
17489;DHT22;8861;52.644;4.734;2023-05-07T00:49:57;14.80;99.90
17489;DHT22;8861;52.644;4.734;2023-05-07T00:52:25;14.80;99.90
17489;DHT22;8861;52.644;4.734;2023-05-07T00:54:52;14.80;99.90
17489;DHT22;8861;52.644;4.734;2023-05-07T00:57:21;14.80;99.90
17489;DHT22;8861;52.644;4.734;2023-05-07T00:59:48;14.80;99.90
17489;DHT22;8861;52.644;4.734;2023-05-07T01:02:15;14.80;99.90
17489;DHT22;8861;52.644;4.734;2023-05-07T01:04:43;14.80;99.90
17489;DHT22;8861;52.644;4.734;2023-05-07T01:07:11;14.80;99.90
17489;DHT22;8861;52.644;4.734;2023-05-07T01:09:39;14.80;99.90
17489;DHT22;8861;52.644;4.734;2023-05-07T01:12:07;14.80;99.90
17489;DHT22;8861;52.644;4.734;2023-05-07T01:14:35;14.80;99.90
17489;DHT22;8861;52.644;4.734;2023-05-07T01:17:01;14.80;99.90
17489;DHT22;8861;52.644;4.734;2023-05-07T01:19:29;14.80;99.90
17489;DHT22;8861;52.644;4.734;2023-05-07T01:22:02;14.70;99.90
17489;DHT22;8861;52.644;4.734;2023-05-07T01:24:32;14.70;99.90
17489;DHT22;8861;52.644;4.734;2023-05-07T01:26:59;14.70;99.90
17489;DHT22;8861;52.644;4.734;2023-05-07T01:29:27;14.70;99.90
17489;DHT22;8861;52.644;4.734;2023-05-07T01:31:55;14.80;99.90
17489;DHT22;8861;52.644;4.734;2023-05-07T01:34:24;14.70;99.90
17489;DHT22;8861;52.644;4.734;2023-05-07T01:36:52;14.70;99.90
17489;DHT22;8861;52.644;4.734;2023-05-07T01:39:21;14.70;99.90
17489;DHT22;8861;52.644;4.734;2023-05-07T01:41:50;14.70;99.90
17489;DHT22;8861;52.644;4.734;2023-05-07T01:44:18;14.70;99.90
17489;DHT22;8861;52.644;4.734;2023-05-07T01:46:45;14.70;99.90
17489;DHT22;8861;52.644;4.734;2023-05-07T01:49:12;14.70;99.90
17489;DHT22;8861;52.644;4.734;2023-05-07T01:51:40;14.70;99.90
17489;DHT22;8861;52.644;4.734;2023-05-07T01:54:07;14.70;99.90
17489;DHT22;8861;52.644;4.734;2023-05-07T01:56:34;14.70;99.90
17489;DHT22;8861;52.644;4.734;2023-05-07T01:59:02;14.70;99.90
17489;DHT22;8861;52.644;4.734;2023-05-07T02:01:29;14.70;99.90
17489;DHT22;8861;52.644;4.734;2023-05-07T02:03:56;14.70;99.90
17489;DHT22;8861;52.644;4.734;2023-05-07T02:06:23;14.70;99.90
17489;DHT22;8861;52.644;4.734;2023-05-07T02:08:50;14.70;99.90
17489;DHT22;8861;52.644;4.734;2023-05-07T02:11:17;14.70;99.90
17489;DHT22;8861;52.644;4.734;2023-05-07T02:13:44;14.70;99.90
17489;DHT22;8861;52.644;4.734;2023-05-07T02:16:12;14.70;99.90
17489;DHT22;8861;52.644;4.734;2023-05-07T02:18:39;14.70;99.90
17489;DHT22;8861;52.644;4.734;2023-05-07T02:21:06;14.70;99.90
17489;DHT22;8861;52.644;4.734;2023-05-07T02:23:33;14.70;99.90
17489;DHT22;8861;52.644;4.734;2023-05-07T02:26:00;14.70;99.90
17489;DHT22;8861;52.644;4.734;2023-05-07T02:28:27;14.70;99.90
17489;DHT22;8861;52.644;4.734;2023-05-07T02:30:54;14.60;99.90
17489;DHT22;8861;52.644;4.734;2023-05-07T02:33:22;14.70;99.90
17489;DHT22;8861;52.644;4.734;2023-05-07T02:35:49;14.60;99.90
17489;DHT22;8861;52.644;4.734;2023-05-07T02:38:17;14.60;99.90
17489;DHT22;8861;52.644;4.734;2023-05-07T02:40:44;14.60;99.90
17489;DHT22;8861;52.644;4.734;2023-05-07T02:43:11;14.60;99.90
17489;DHT22;8861;52.644;4.734;2023-05-07T02:45:38;14.60;99.90
17489;DHT22;8861;52.644;4.734;2023-05-07T02:48:05;14.50;99.90
17489;DHT22;8861;52.644;4.734;2023-05-07T02:50:34;14.50;99.90
17489;DHT22;8861;52.644;4.734;2023-05-07T02:53:01;14.50;99.90
17489;DHT22;8861;52.644;4.734;2023-05-07T02:55:27;14.50;99.90
17489;DHT22;8861;52.644;4.734;2023-05-07T02:57:55;14.40;99.90
17489;DHT22;8861;52.644;4.734;2023-05-07T03:00:22;14.40;99.90
17489;DHT22;8861;52.644;4.734;2023-05-07T03:02:49;14.40;99.90
17489;DHT22;8861;52.644;4.734;2023-05-07T03:05:16;14.30;99.90
17489;DHT22;8861;52.644;4.734;2023-05-07T03:07:44;14.30;99.90
17489;DHT22;8861;52.644;4.734;2023-05-07T03:10:13;14.20;99.90
17489;DHT22;8861;52.644;4.734;2023-05-07T03:12:40;14.20;99.90
17489;DHT22;8861;52.644;4.734;2023-05-07T03:15:08;14.20;99.90
17489;DHT22;8861;52.644;4.734;2023-05-07T03:17:36;14.20;99.90
17489;DHT22;8861;52.644;4.734;2023-05-07T03:20:03;14.20;99.90
17489;DHT22;8861;52.644;4.734;2023-05-07T03:22:30;14.20;99.90
17489;DHT22;8861;52.644;4.734;2023-05-07T03:24:59;14.20;99.90
17489;DHT22;8861;52.644;4.734;2023-05-07T03:27:25;14.20;99.90
17489;DHT22;8861;52.644;4.734;2023-05-07T03:29:52;14.20;99.90
17489;DHT22;8861;52.644;4.734;2023-05-07T03:32:19;14.20;99.90
17489;DHT22;8861;52.644;4.734;2023-05-07T03:34:46;14.20;99.90
17489;DHT22;8861;52.644;4.734;2023-05-07T03:37:13;14.20;99.90
17489;DHT22;8861;52.644;4.734;2023-05-07T03:39:40;14.10;99.90
17489;DHT22;8861;52.644;4.734;2023-05-07T03:42:08;14.10;99.90
17489;DHT22;8861;52.644;4.734;2023-05-07T03:44:35;14.00;99.90
17489;DHT22;8861;52.644;4.734;2023-05-07T03:47:02;14.00;99.90
17489;DHT22;8861;52.644;4.734;2023-05-07T03:49:29;13.90;99.90
17489;DHT22;8861;52.644;4.734;2023-05-07T03:51:56;13.90;99.90
17489;DHT22;8861;52.644;4.734;2023-05-07T03:54:23;13.90;99.90
17489;DHT22;8861;52.644;4.734;2023-05-07T03:56:50;13.90;99.90
17489;DHT22;8861;52.644;4.734;2023-05-07T03:59:18;13.80;99.90
17489;DHT22;8861;52.644;4.734;2023-05-07T04:01:45;13.90;99.90
17489;DHT22;8861;52.644;4.734;2023-05-07T04:04:12;13.90;99.90
17489;DHT22;8861;52.644;4.734;2023-05-07T04:06:39;13.90;99.90
17489;DHT22;8861;52.644;4.734;2023-05-07T04:09:06;13.90;99.90
17489;DHT22;8861;52.644;4.734;2023-05-07T04:11:34;14.00;99.90
17489;DHT22;8861;52.644;4.734;2023-05-07T04:14:01;14.00;99.90
17489;DHT22;8861;52.644;4.734;2023-05-07T04:16:29;14.00;99.90
17489;DHT22;8861;52.644;4.734;2023-05-07T04:18:56;14.00;99.90
17489;DHT22;8861;52.644;4.734;2023-05-07T04:21:23;14.10;99.90
17489;DHT22;8861;52.644;4.734;2023-05-07T04:23:52;14.10;99.90
17489;DHT22;8861;52.644;4.734;2023-05-07T04:26:19;14.10;99.90
17489;DHT22;8861;52.644;4.734;2023-05-07T04:28:46;14.10;99.90
17489;DHT22;8861;52.644;4.734;2023-05-07T04:31:13;14.10;99.90
17489;DHT22;8861;52.644;4.734;2023-05-07T04:33:42;14.10;99.90
17489;DHT22;8861;52.644;4.734;2023-05-07T04:36:09;14.20;99.90
17489;DHT22;8861;52.644;4.734;2023-05-07T04:38:36;14.20;99.90
17489;DHT22;8861;52.644;4.734;2023-05-07T04:41:06;14.20;99.90
17489;DHT22;8861;52.644;4.734;2023-05-07T04:43:33;14.20;99.90
17489;DHT22;8861;52.644;4.734;2023-05-07T04:46:00;14.30;99.90
17489;DHT22;8861;52.644;4.734;2023-05-07T04:48:27;14.30;99.90
17489;DHT22;8861;52.644;4.734;2023-05-07T04:50:56;14.40;99.90
17489;DHT22;8861;52.644;4.734;2023-05-07T04:53:22;14.40;99.90
17489;DHT22;8861;52.644;4.734;2023-05-07T04:55:55;14.50;99.90
17489;DHT22;8861;52.644;4.734;2023-05-07T04:58:22;14.50;99.90
17489;DHT22;8861;52.644;4.734;2023-05-07T05:00:49;14.50;99.90
17489;DHT22;8861;52.644;4.734;2023-05-07T05:03:16;14.60;99.90
17489;DHT22;8861;52.644;4.734;2023-05-07T05:05:43;14.60;99.90
17489;DHT22;8861;52.644;4.734;2023-05-07T05:08:12;14.60;99.90
17489;DHT22;8861;52.644;4.734;2023-05-07T05:10:39;14.70;99.90
17489;DHT22;8861;52.644;4.734;2023-05-07T05:13:07;14.70;99.90
17489;DHT22;8861;52.644;4.734;2023-05-07T05:15:34;14.80;99.90
17489;DHT22;8861;52.644;4.734;2023-05-07T05:18:01;14.90;99.90
17489;DHT22;8861;52.644;4.734;2023-05-07T05:20:28;15.00;99.90
17489;DHT22;8861;52.644;4.734;2023-05-07T05:22:55;15.00;99.90
17489;DHT22;8861;52.644;4.734;2023-05-07T05:25:23;15.10;99.90
17489;DHT22;8861;52.644;4.734;2023-05-07T05:27:50;15.10;99.90
17489;DHT22;8861;52.644;4.734;2023-05-07T05:30:17;15.20;99.90
17489;DHT22;8861;52.644;4.734;2023-05-07T05:32:44;15.30;99.90
17489;DHT22;8861;52.644;4.734;2023-05-07T05:35:11;15.40;99.90
17489;DHT22;8861;52.644;4.734;2023-05-07T05:37:38;15.50;99.90
17489;DHT22;8861;52.644;4.734;2023-05-07T05:40:06;15.60;99.90
17489;DHT22;8861;52.644;4.734;2023-05-07T05:42:34;15.60;99.90
17489;DHT22;8861;52.644;4.734;2023-05-07T05:45:01;15.70;99.90
17489;DHT22;8861;52.644;4.734;2023-05-07T05:47:28;15.70;99.90
17489;DHT22;8861;52.644;4.734;2023-05-07T05:49:56;15.70;99.90
17489;DHT22;8861;52.644;4.734;2023-05-07T05:52:23;15.80;99.90
17489;DHT22;8861;52.644;4.734;2023-05-07T05:54:50;15.80;99.90
17489;DHT22;8861;52.644;4.734;2023-05-07T05:57:17;15.80;99.90
17489;DHT22;8861;52.644;4.734;2023-05-07T05:59:46;15.90;99.90
17489;DHT22;8861;52.644;4.734;2023-05-07T06:02:13;15.90;99.90
17489;DHT22;8861;52.644;4.734;2023-05-07T06:04:40;16.00;99.90
17489;DHT22;8861;52.644;4.734;2023-05-07T06:07:08;16.00;99.90
17489;DHT22;8861;52.644;4.734;2023-05-07T06:09:35;16.10;99.90
17489;DHT22;8861;52.644;4.734;2023-05-07T06:12:01;16.20;99.90
17489;DHT22;8861;52.644;4.734;2023-05-07T06:14:28;16.30;99.90
17489;DHT22;8861;52.644;4.734;2023-05-07T06:16:57;16.30;99.90
17489;DHT22;8861;52.644;4.734;2023-05-07T06:19:24;16.40;99.90
17489;DHT22;8861;52.644;4.734;2023-05-07T06:21:52;16.40;99.90
17489;DHT22;8861;52.644;4.734;2023-05-07T06:24:19;16.50;99.90
17489;DHT22;8861;52.644;4.734;2023-05-07T06:26:46;16.50;99.90
17489;DHT22;8861;52.644;4.734;2023-05-07T06:29:13;16.60;99.90
17489;DHT22;8861;52.644;4.734;2023-05-07T06:31:40;16.60;99.90
17489;DHT22;8861;52.644;4.734;2023-05-07T06:34:09;16.50;99.90
17489;DHT22;8861;52.644;4.734;2023-05-07T06:36:39;16.50;99.90
17489;DHT22;8861;52.644;4.734;2023-05-07T06:39:06;16.50;99.90
17489;DHT22;8861;52.644;4.734;2023-05-07T06:41:33;16.60;99.90
17489;DHT22;8861;52.644;4.734;2023-05-07T06:44:01;16.60;99.90
17489;DHT22;8861;52.644;4.734;2023-05-07T06:46:28;16.70;99.90
17489;DHT22;8861;52.644;4.734;2023-05-07T06:48:55;16.70;99.90
17489;DHT22;8861;52.644;4.734;2023-05-07T06:51:24;16.80;99.90
17489;DHT22;8861;52.644;4.734;2023-05-07T06:53:51;16.80;99.90
17489;DHT22;8861;52.644;4.734;2023-05-07T06:56:18;16.90;99.90
17489;DHT22;8861;52.644;4.734;2023-05-07T06:58:45;17.00;99.90
17489;DHT22;8861;52.644;4.734;2023-05-07T07:01:12;17.10;99.90
17489;DHT22;8861;52.644;4.734;2023-05-07T07:03:39;17.10;99.90
17489;DHT22;8861;52.644;4.734;2023-05-07T07:06:06;17.20;99.90
17489;DHT22;8861;52.644;4.734;2023-05-07T07:08:34;17.30;99.90
17489;DHT22;8861;52.644;4.734;2023-05-07T07:11:01;17.40;99.90
17489;DHT22;8861;52.644;4.734;2023-05-07T07:13:28;17.50;99.90
17489;DHT22;8861;52.644;4.734;2023-05-07T07:15:55;17.60;99.90
17489;DHT22;8861;52.644;4.734;2023-05-07T07:18:22;17.60;99.90
17489;DHT22;8861;52.644;4.734;2023-05-07T07:20:49;17.70;99.90
17489;DHT22;8861;52.644;4.734;2023-05-07T07:23:16;17.80;99.90
17489;DHT22;8861;52.644;4.734;2023-05-07T07:25:44;17.70;99.90
17489;DHT22;8861;52.644;4.734;2023-05-07T07:28:11;17.70;99.90
17489;DHT22;8861;52.644;4.734;2023-05-07T07:30:38;17.70;99.90
17489;DHT22;8861;52.644;4.734;2023-05-07T07:33:05;17.70;99.90
17489;DHT22;8861;52.644;4.734;2023-05-07T07:35:32;17.70;99.90
17489;DHT22;8861;52.644;4.734;2023-05-07T07:37:59;17.60;99.90
17489;DHT22;8861;52.644;4.734;2023-05-07T07:40:27;17.50;99.90
17489;DHT22;8861;52.644;4.734;2023-05-07T07:42:57;17.40;99.90
17489;DHT22;8861;52.644;4.734;2023-05-07T07:45:24;17.30;99.90
17489;DHT22;8861;52.644;4.734;2023-05-07T07:47:51;17.40;99.90
17489;DHT22;8861;52.644;4.734;2023-05-07T07:50:18;17.40;99.90
17489;DHT22;8861;52.644;4.734;2023-05-07T07:52:45;17.40;99.90
17489;DHT22;8861;52.644;4.734;2023-05-07T07:55:12;17.40;99.90
17489;DHT22;8861;52.644;4.734;2023-05-07T07:57:39;17.50;99.90
17489;DHT22;8861;52.644;4.734;2023-05-07T08:00:08;17.70;99.90
17489;DHT22;8861;52.644;4.734;2023-05-07T08:02:35;17.80;99.90
17489;DHT22;8861;52.644;4.734;2023-05-07T08:05:03;17.90;99.90
17489;DHT22;8861;52.644;4.734;2023-05-07T08:07:29;18.00;99.90
17489;DHT22;8861;52.644;4.734;2023-05-07T08:09:56;18.10;99.90
17489;DHT22;8861;52.644;4.734;2023-05-07T08:12:23;18.20;99.90
17489;DHT22;8861;52.644;4.734;2023-05-07T08:14:50;18.20;99.90
17489;DHT22;8861;52.644;4.734;2023-05-07T08:17:20;18.30;99.90
17489;DHT22;8861;52.644;4.734;2023-05-07T08:19:47;18.40;99.90
17489;DHT22;8861;52.644;4.734;2023-05-07T08:22:14;18.40;99.90
17489;DHT22;8861;52.644;4.734;2023-05-07T08:24:43;18.40;99.90
17489;DHT22;8861;52.644;4.734;2023-05-07T08:27:10;18.40;99.90
17489;DHT22;8861;52.644;4.734;2023-05-07T08:29:37;18.40;99.90
17489;DHT22;8861;52.644;4.734;2023-05-07T08:32:04;18.40;99.90
17489;DHT22;8861;52.644;4.734;2023-05-07T08:34:32;18.60;99.90
17489;DHT22;8861;52.644;4.734;2023-05-07T08:36:59;18.70;99.90
17489;DHT22;8861;52.644;4.734;2023-05-07T08:39:26;18.90;99.90
17489;DHT22;8861;52.644;4.734;2023-05-07T08:41:55;19.10;99.90
17489;DHT22;8861;52.644;4.734;2023-05-07T08:44:23;19.20;99.90
17489;DHT22;8861;52.644;4.734;2023-05-07T08:46:52;19.20;99.90
17489;DHT22;8861;52.644;4.734;2023-05-07T08:49:20;19.30;99.90
17489;DHT22;8861;52.644;4.734;2023-05-07T08:51:49;19.50;99.90
17489;DHT22;8861;52.644;4.734;2023-05-07T08:54:16;19.70;99.90
17489;DHT22;8861;52.644;4.734;2023-05-07T08:56:45;19.80;99.90
17489;DHT22;8861;52.644;4.734;2023-05-07T08:59:12;20.00;99.90
17489;DHT22;8861;52.644;4.734;2023-05-07T09:01:39;20.20;99.90
17489;DHT22;8861;52.644;4.734;2023-05-07T09:04:06;20.40;99.90
17489;DHT22;8861;52.644;4.734;2023-05-07T09:06:33;20.60;99.90
17489;DHT22;8861;52.644;4.734;2023-05-07T09:09:01;20.70;99.90
17489;DHT22;8861;52.644;4.734;2023-05-07T09:11:30;20.70;99.90
17489;DHT22;8861;52.644;4.734;2023-05-07T09:13:58;20.70;99.90
17489;DHT22;8861;52.644;4.734;2023-05-07T09:16:28;20.60;99.90
17489;DHT22;8861;52.644;4.734;2023-05-07T09:18:58;20.70;99.90
17489;DHT22;8861;52.644;4.734;2023-05-07T09:21:25;20.70;99.90
17489;DHT22;8861;52.644;4.734;2023-05-07T09:23:53;20.70;99.90
17489;DHT22;8861;52.644;4.734;2023-05-07T09:26:22;20.80;99.90
17489;DHT22;8861;52.644;4.734;2023-05-07T09:28:49;20.80;99.90
17489;DHT22;8861;52.644;4.734;2023-05-07T09:31:17;20.80;99.90
17489;DHT22;8861;52.644;4.734;2023-05-07T09:33:44;20.80;99.90
17489;DHT22;8861;52.644;4.734;2023-05-07T09:36:11;20.90;99.90
17489;DHT22;8861;52.644;4.734;2023-05-07T09:38:38;20.90;99.90
17489;DHT22;8861;52.644;4.734;2023-05-07T09:41:07;21.00;99.90
17489;DHT22;8861;52.644;4.734;2023-05-07T09:43:36;21.10;99.90
17489;DHT22;8861;52.644;4.734;2023-05-07T09:46:07;21.30;99.90
17489;DHT22;8861;52.644;4.734;2023-05-07T09:48:37;21.70;99.90
17489;DHT22;8861;52.644;4.734;2023-05-07T09:51:15;22.00;99.90
17489;DHT22;8861;52.644;4.734;2023-05-07T09:53:45;22.30;99.90
17489;DHT22;8861;52.644;4.734;2023-05-07T09:56:14;22.50;99.90
17489;DHT22;8861;52.644;4.734;2023-05-07T09:58:43;22.60;99.90
17489;DHT22;8861;52.644;4.734;2023-05-07T10:01:11;22.70;99.90
17489;DHT22;8861;52.644;4.734;2023-05-07T10:03:40;22.70;99.90
17489;DHT22;8861;52.644;4.734;2023-05-07T10:06:09;22.70;99.90
17489;DHT22;8861;52.644;4.734;2023-05-07T10:08:36;22.80;99.90
17489;DHT22;8861;52.644;4.734;2023-05-07T10:11:04;23.00;99.90
17489;DHT22;8861;52.644;4.734;2023-05-07T10:13:32;23.00;99.90
17489;DHT22;8861;52.644;4.734;2023-05-07T10:16:01;23.00;99.90
17489;DHT22;8861;52.644;4.734;2023-05-07T10:18:30;23.00;99.90
17489;DHT22;8861;52.644;4.734;2023-05-07T10:21:03;23.00;99.90
17489;DHT22;8861;52.644;4.734;2023-05-07T10:23:31;23.10;99.90
17489;DHT22;8861;52.644;4.734;2023-05-07T10:26:01;23.30;99.90
17489;DHT22;8861;52.644;4.734;2023-05-07T10:28:30;23.50;99.90
17489;DHT22;8861;52.644;4.734;2023-05-07T10:31:13;23.50;99.90
17489;DHT22;8861;52.644;4.734;2023-05-07T10:33:42;23.70;99.90
17489;DHT22;8861;52.644;4.734;2023-05-07T10:36:11;23.70;99.90
17489;DHT22;8861;52.644;4.734;2023-05-07T10:38:38;23.70;99.90
17489;DHT22;8861;52.644;4.734;2023-05-07T10:41:06;23.70;99.90
17489;DHT22;8861;52.644;4.734;2023-05-07T10:43:40;23.70;99.90
17489;DHT22;8861;52.644;4.734;2023-05-07T10:46:15;23.80;99.90
17489;DHT22;8861;52.644;4.734;2023-05-07T10:49:07;24.00;99.90
17489;DHT22;8861;52.644;4.734;2023-05-07T10:51:35;24.00;99.90
17489;DHT22;8861;52.644;4.734;2023-05-07T10:54:21;23.90;99.90
17489;DHT22;8861;52.644;4.734;2023-05-07T10:56:48;23.80;99.90
17489;DHT22;8861;52.644;4.734;2023-05-07T10:59:46;23.70;99.90
17489;DHT22;8861;52.644;4.734;2023-05-07T11:02:14;23.70;99.90
17489;DHT22;8861;52.644;4.734;2023-05-07T11:04:41;23.70;99.90
17489;DHT22;8861;52.644;4.734;2023-05-07T11:07:27;23.70;99.90
17489;DHT22;8861;52.644;4.734;2023-05-07T11:09:55;23.70;99.90
17489;DHT22;8861;52.644;4.734;2023-05-07T11:12:48;23.70;99.90
17489;DHT22;8861;52.644;4.734;2023-05-07T11:15:16;23.70;99.90
17489;DHT22;8861;52.644;4.734;2023-05-07T11:18:01;23.70;99.90
17489;DHT22;8861;52.644;4.734;2023-05-07T11:20:50;23.70;99.90
17489;DHT22;8861;52.644;4.734;2023-05-07T11:23:55;23.70;99.90
17489;DHT22;8861;52.644;4.734;2023-05-07T11:26:26;23.70;99.90
17489;DHT22;8861;52.644;4.734;2023-05-07T11:28:54;23.70;99.90
17489;DHT22;8861;52.644;4.734;2023-05-07T11:31:23;23.70;99.90
17489;DHT22;8861;52.644;4.734;2023-05-07T11:33:54;23.80;99.90
17489;DHT22;8861;52.644;4.734;2023-05-07T11:36:23;24.00;99.90
17489;DHT22;8861;52.644;4.734;2023-05-07T11:38:50;24.00;99.90
17489;DHT22;8861;52.644;4.734;2023-05-07T11:41:17;23.90;99.90
17489;DHT22;8861;52.644;4.734;2023-05-07T11:43:58;23.80;99.90
17489;DHT22;8861;52.644;4.734;2023-05-07T11:46:26;23.80;99.90
17489;DHT22;8861;52.644;4.734;2023-05-07T11:48:54;23.60;99.90
17489;DHT22;8861;52.644;4.734;2023-05-07T11:51:22;23.50;99.90
17489;DHT22;8861;52.644;4.734;2023-05-07T11:53:50;23.40;99.90
17489;DHT22;8861;52.644;4.734;2023-05-07T11:56:18;23.30;99.90
17489;DHT22;8861;52.644;4.734;2023-05-07T11:58:46;23.10;99.90
17489;DHT22;8861;52.644;4.734;2023-05-07T12:01:14;22.80;99.90
17489;DHT22;8861;52.644;4.734;2023-05-07T12:03:43;22.50;99.90
17489;DHT22;8861;52.644;4.734;2023-05-07T12:06:13;22.30;99.90
17489;DHT22;8861;52.644;4.734;2023-05-07T12:08:41;21.90;99.90
17489;DHT22;8861;52.644;4.734;2023-05-07T12:11:10;21.60;99.90
17489;DHT22;8861;52.644;4.734;2023-05-07T12:13:37;21.30;99.90
17489;DHT22;8861;52.644;4.734;2023-05-07T12:16:06;20.90;99.90
17489;DHT22;8861;52.644;4.734;2023-05-07T12:18:34;20.50;99.90
17489;DHT22;8861;52.644;4.734;2023-05-07T12:21:01;20.10;99.90
17489;DHT22;8861;52.644;4.734;2023-05-07T12:23:30;19.80;99.90
17489;DHT22;8861;52.644;4.734;2023-05-07T12:25:57;19.50;99.90
17489;DHT22;8861;52.644;4.734;2023-05-07T12:28:25;19.30;99.90
17489;DHT22;8861;52.644;4.734;2023-05-07T12:30:53;19.10;99.90
17489;DHT22;8861;52.644;4.734;2023-05-07T12:33:24;19.00;99.90
17489;DHT22;8861;52.644;4.734;2023-05-07T12:35:54;19.10;99.90
17489;DHT22;8861;52.644;4.734;2023-05-07T12:38:22;19.10;99.90
17489;DHT22;8861;52.644;4.734;2023-05-07T12:40:53;19.10;99.90
17489;DHT22;8861;52.644;4.734;2023-05-07T12:43:21;19.10;99.90
17489;DHT22;8861;52.644;4.734;2023-05-07T12:45:50;19.10;99.90
17489;DHT22;8861;52.644;4.734;2023-05-07T12:48:17;19.10;99.90
17489;DHT22;8861;52.644;4.734;2023-05-07T12:50:44;19.30;99.90
17489;DHT22;8861;52.644;4.734;2023-05-07T12:53:11;19.40;99.90
17489;DHT22;8861;52.644;4.734;2023-05-07T12:55:43;19.60;99.90
17489;DHT22;8861;52.644;4.734;2023-05-07T12:58:17;19.90;99.90
17489;DHT22;8861;52.644;4.734;2023-05-07T13:00:44;20.30;99.90
17489;DHT22;8861;52.644;4.734;2023-05-07T13:03:21;20.70;99.90
17489;DHT22;8861;52.644;4.734;2023-05-07T13:05:48;21.00;99.90
17489;DHT22;8861;52.644;4.734;2023-05-07T13:08:26;21.20;99.90
17489;DHT22;8861;52.644;4.734;2023-05-07T13:10:54;21.20;99.90
17489;DHT22;8861;52.644;4.734;2023-05-07T13:13:24;21.00;99.90
17489;DHT22;8861;52.644;4.734;2023-05-07T13:15:51;20.80;99.90
17489;DHT22;8861;52.644;4.734;2023-05-07T13:18:18;20.50;99.90
17489;DHT22;8861;52.644;4.734;2023-05-07T13:20:45;20.20;99.90
17489;DHT22;8861;52.644;4.734;2023-05-07T13:23:12;20.10;99.90
17489;DHT22;8861;52.644;4.734;2023-05-07T13:25:39;19.90;99.90
17489;DHT22;8861;52.644;4.734;2023-05-07T13:28:06;19.80;99.90
17489;DHT22;8861;52.644;4.734;2023-05-07T13:30:34;19.90;99.90
17489;DHT22;8861;52.644;4.734;2023-05-07T13:33:01;19.90;99.90
17489;DHT22;8861;52.644;4.734;2023-05-07T13:35:28;19.80;99.90
17489;DHT22;8861;52.644;4.734;2023-05-07T13:37:55;19.70;99.90
17489;DHT22;8861;52.644;4.734;2023-05-07T13:40:22;19.60;99.90
17489;DHT22;8861;52.644;4.734;2023-05-07T13:42:49;19.50;99.90
17489;DHT22;8861;52.644;4.734;2023-05-07T13:45:17;19.30;99.90
17489;DHT22;8861;52.644;4.734;2023-05-07T13:47:46;19.20;99.90
17489;DHT22;8861;52.644;4.734;2023-05-07T13:50:15;19.10;99.90
17489;DHT22;8861;52.644;4.734;2023-05-07T13:52:43;18.90;99.90
17489;DHT22;8861;52.644;4.734;2023-05-07T13:55:16;18.80;99.90
17489;DHT22;8861;52.644;4.734;2023-05-07T13:57:43;18.70;99.90
17489;DHT22;8861;52.644;4.734;2023-05-07T14:00:11;18.60;99.90
17489;DHT22;8861;52.644;4.734;2023-05-07T14:02:38;18.50;99.90
17489;DHT22;8861;52.644;4.734;2023-05-07T14:05:07;18.40;99.90
17489;DHT22;8861;52.644;4.734;2023-05-07T14:07:35;18.30;99.90
17489;DHT22;8861;52.644;4.734;2023-05-07T14:10:02;18.20;99.90
17489;DHT22;8861;52.644;4.734;2023-05-07T14:12:29;18.10;99.90
17489;DHT22;8861;52.644;4.734;2023-05-07T14:14:56;18.00;99.90
17489;DHT22;8861;52.644;4.734;2023-05-07T14:17:24;18.00;99.90
17489;DHT22;8861;52.644;4.734;2023-05-07T14:19:52;17.90;99.90
17489;DHT22;8861;52.644;4.734;2023-05-07T14:22:22;18.00;99.90
17489;DHT22;8861;52.644;4.734;2023-05-07T14:24:49;18.00;99.90
17489;DHT22;8861;52.644;4.734;2023-05-07T14:27:16;18.10;99.90
17489;DHT22;8861;52.644;4.734;2023-05-07T14:29:43;18.20;99.90
17489;DHT22;8861;52.644;4.734;2023-05-07T14:32:11;18.20;99.90
17489;DHT22;8861;52.644;4.734;2023-05-07T14:34:38;18.20;99.90
17489;DHT22;8861;52.644;4.734;2023-05-07T14:37:05;18.20;99.90
17489;DHT22;8861;52.644;4.734;2023-05-07T14:39:33;18.20;99.90
17489;DHT22;8861;52.644;4.734;2023-05-07T14:42:00;18.30;99.90
17489;DHT22;8861;52.644;4.734;2023-05-07T14:44:27;18.30;99.90
17489;DHT22;8861;52.644;4.734;2023-05-07T14:46:54;18.40;99.90
17489;DHT22;8861;52.644;4.734;2023-05-07T14:49:21;18.70;99.90
17489;DHT22;8861;52.644;4.734;2023-05-07T14:51:48;19.00;99.90
17489;DHT22;8861;52.644;4.734;2023-05-07T14:54:15;19.40;99.90
17489;DHT22;8861;52.644;4.734;2023-05-07T14:56:43;19.60;99.90
17489;DHT22;8861;52.644;4.734;2023-05-07T14:59:10;19.80;99.90
17489;DHT22;8861;52.644;4.734;2023-05-07T15:01:38;19.90;99.90
17489;DHT22;8861;52.644;4.734;2023-05-07T15:04:08;20.00;99.90
17489;DHT22;8861;52.644;4.734;2023-05-07T15:06:35;20.10;99.90
17489;DHT22;8861;52.644;4.734;2023-05-07T15:09:02;20.20;99.90
17489;DHT22;8861;52.644;4.734;2023-05-07T15:11:29;20.40;99.90
17489;DHT22;8861;52.644;4.734;2023-05-07T15:13:57;21.20;99.90
17489;DHT22;8861;52.644;4.734;2023-05-07T15:16:24;22.80;99.90
17489;DHT22;8861;52.644;4.734;2023-05-07T15:18:51;24.30;99.90
17489;DHT22;8861;52.644;4.734;2023-05-07T15:21:18;25.90;99.90
17489;DHT22;8861;52.644;4.734;2023-05-07T15:23:45;28.00;99.90
17489;DHT22;8861;52.644;4.734;2023-05-07T15:26:12;29.70;99.90
17489;DHT22;8861;52.644;4.734;2023-05-07T15:28:39;31.00;99.90
17489;DHT22;8861;52.644;4.734;2023-05-07T15:31:08;31.60;99.90
17489;DHT22;8861;52.644;4.734;2023-05-07T15:33:35;32.40;99.90
17489;DHT22;8861;52.644;4.734;2023-05-07T15:36:02;33.00;99.90
17489;DHT22;8861;52.644;4.734;2023-05-07T15:38:29;32.10;99.90
17489;DHT22;8861;52.644;4.734;2023-05-07T15:40:56;30.80;99.90
17489;DHT22;8861;52.644;4.734;2023-05-07T15:43:23;29.40;99.90
17489;DHT22;8861;52.644;4.734;2023-05-07T15:45:50;28.20;99.90
17489;DHT22;8861;52.644;4.734;2023-05-07T15:48:20;27.10;99.90
17489;DHT22;8861;52.644;4.734;2023-05-07T15:50:47;26.10;99.90